Time;durP1;ratioP1;P1;durP2;ratioP2;P2;SDS_P1;SDS_P2;PMS_P1;PMS_P2;Temp;Humidity;BMP_temperature;BMP_pressure;BME280_temperature;BME280_humidity;BME280_pressure;Samples;Min_cycle;Max_cycle;Signal;HPM_P1;HPM_P2
2023/08/31 00:01:15;;;;;;;;;;;;;;;13.58;97.05;100412.81;5003140;28;20045;-73
2023/08/31 00:03:40;;;;;;;11.07;7.30;;;;;;;13.56;96.79;100423.09;5005077;28;19921;-73
2023/08/31 00:06:08;;;;;;;9.60;7.05;;;;;;;13.56;97.00;100409.66;4986445;28;20054;-74
2023/08/31 00:08:34;;;;;;;10.38;7.45;;;;;;;13.53;96.60;100415.59;5003107;28;20552;-73
2023/08/31 00:11:00;;;;;;;11.10;7.03;;;;;;;13.51;96.24;100415.13;4992368;28;20042;-74
2023/08/31 00:13:27;;;;;;;9.77;7.25;;;;;;;13.41;96.27;100413.38;5005328;28;20037;-73
2023/08/31 00:15:56;;;;;;;10.02;7.10;;;;;;;13.39;96.44;100416.38;4961342;28;20137;-73
2023/08/31 00:18:22;;;;;;;8.82;6.90;;;;;;;13.35;96.30;100414.59;4969332;28;20919;-73
2023/08/31 00:20:48;;;;;;;;;;;;;;;13.35;96.22;100418.06;4984065;28;20045;-72
2023/08/31 00:23:14;;;;;;;8.13;5.63;;;;;;;13.32;96.17;100418.66;5015564;28;19921;-75
2023/08/31 00:25:43;;;;;;;;;;;;;;;13.29;95.91;100419.25;4990022;28;20052;-74
2023/08/31 00:28:09;;;;;;;9.68;6.32;;;;;;;13.23;95.52;100412.38;5004408;28;19913;-74
2023/08/31 00:30:36;;;;;;;7.80;6.40;;;;;;;13.19;95.56;100424.75;4996371;28;20044;-73
2023/08/31 00:33:02;;;;;;;8.38;6.00;;;;;;;13.19;95.65;100422.06;4961629;28;20038;-73
2023/08/31 00:35:28;;;;;;;8.98;6.40;;;;;;;13.18;96.09;100415.09;4994687;28;20042;-76
2023/08/31 00:37:58;;;;;;;8.18;6.45;;;;;;;13.17;95.98;100420.78;4975523;28;20033;-73
2023/08/31 00:40:28;;;;;;;8.63;6.70;;;;;;;13.14;95.95;100424.88;4994471;28;20050;-76
2023/08/31 00:42:54;;;;;;;7.90;6.35;;;;;;;13.11;95.62;100420.06;4985447;28;20133;-72
2023/08/31 00:45:20;;;;;;;7.93;5.82;;;;;;;13.08;95.43;100426.03;5014258;28;20030;-73
2023/08/31 00:47:49;;;;;;;8.93;6.78;;;;;;;13.04;95.19;100425.00;4997661;28;20084;-73
2023/08/31 00:50:15;;;;;;;10.55;6.70;;;;;;;12.99;95.34;100423.19;4980273;28;20124;-73
2023/08/31 00:52:44;;;;;;;;;;;;;;;12.97;95.28;100435.34;4979209;28;20675;-73
2023/08/31 00:55:11;;;;;;;11.57;6.85;;;;;;;12.92;95.51;100433.53;4960191;28;20536;-72
2023/08/31 00:57:37;;;;;;;9.35;7.03;;;;;;;12.90;95.52;100429.53;4970675;28;20065;-75
2023/08/31 01:00:06;;;;;;;10.45;7.13;;;;;;;12.85;95.59;100423.16;4997427;28;20117;-76
2023/08/31 01:02:50;;;;;;;9.38;6.85;;;;;;;12.82;95.65;100417.56;4968396;28;20057;-74
2023/08/31 01:05:29;;;;;;;10.68;7.47;;;;;;;12.75;95.72;100420.63;5000295;28;20072;-75
2023/08/31 01:08:13;;;;;;;11.18;7.32;;;;;;;12.73;95.67;100430.84;4985781;28;20233;-76
2023/08/31 01:11:05;;;;;;;9.95;7.32;;;;;;;12.68;95.60;100433.63;4982127;28;20045;-72
2023/08/31 01:13:34;;;;;;;11.15;7.57;;;;;;;12.64;95.69;100421.84;5018228;28;20034;-72
2023/08/31 01:16:03;;;;;;;11.60;7.00;;;;;;;12.58;95.80;100417.63;4998501;28;20061;-74
2023/08/31 01:18:31;;;;;;;10.10;6.60;;;;;;;12.58;95.52;100425.69;4994452;28;20065;-73
2023/08/31 01:21:24;;;;;;;12.27;9.13;;;;;;;12.50;95.49;100424.47;4966254;28;20041;-73
2023/08/31 01:23:53;;;;;;;12.25;7.80;;;;;;;12.48;95.77;100428.53;4975051;28;20165;-73
2023/08/31 01:26:19;;;;;;;10.90;8.38;;;;;;;12.43;95.80;100423.22;4991503;28;20035;-74
2023/08/31 01:28:46;;;;;;;10.30;7.63;;;;;;;12.41;95.72;100433.47;4983736;28;20046;-72
2023/08/31 01:31:15;;;;;;;8.45;7.35;;;;;;;12.40;95.75;100429.19;4999912;28;20034;-73
2023/08/31 01:33:41;;;;;;;12.23;7.10;;;;;;;12.38;95.63;100426.78;4984693;28;20695;-72
2023/08/31 01:36:23;;;;;;;9.40;7.05;;;;;;;12.38;95.47;100434.03;4995323;28;20038;-73
2023/08/31 01:39:01;;;;;;;10.23;7.18;;;;;;;12.36;95.82;100430.84;4996774;28;20041;-73
2023/08/31 01:41:31;;;;;;;11.32;7.07;;;;;;;12.31;95.62;100431.69;4994493;28;20744;-73
2023/08/31 01:43:58;;;;;;;8.35;6.30;;;;;;;12.30;95.79;100425.53;4980748;28;20034;-74
2023/08/31 01:46:24;;;;;;;11.75;7.13;;;;;;;12.26;95.94;100427.22;4995764;28;20042;-74
2023/08/31 01:48:49;;;;;;;10.32;6.72;;;;;;;12.26;96.28;100437.97;4997432;28;20068;-73
2023/08/31 01:51:16;;;;;;;;;;;;;;;12.26;96.35;100437.13;4969010;28;20072;-74
2023/08/31 01:53:42;;;;;;;8.20;5.70;;;;;;;12.24;96.54;100437.41;4997402;28;20077;-73
2023/08/31 01:56:07;;;;;;;8.90;5.40;;;;;;;12.20;96.18;100439.09;4977415;28;20038;-74
2023/08/31 01:58:33;;;;;;;8.93;5.18;;;;;;;12.21;96.09;100450.63;4985412;28;20034;-73
2023/08/31 02:00:59;;;;;;;8.48;6.32;;;;;;;12.18;95.86;100446.63;4976098;28;20100;-73
2023/08/31 02:03:25;;;;;;;;;;;;;;;12.17;95.68;100447.72;4983202;28;20033;-73
2023/08/31 02:05:50;;;;;;;8.65;5.43;;;;;;;12.11;96.07;100446.19;4989714;28;19925;-72
2023/08/31 02:08:17;;;;;;;10.50;5.85;;;;;;;12.10;96.06;100446.47;4993681;28;20578;-73
2023/08/31 02:10:45;;;;;;;10.60;6.40;;;;;;;12.08;96.07;100446.75;4991956;28;20117;-73
2023/08/31 02:13:14;;;;;;;9.50;5.55;;;;;;;12.04;95.88;100451.09;5001894;28;20057;-73
2023/08/31 02:15:39;;;;;;;8.68;5.05;;;;;;;12.03;95.91;100441.44;4997899;28;20033;-73
2023/08/31 02:18:05;;;;;;;9.80;5.00;;;;;;;12.03;95.54;100449.50;4989927;28;20034;-73
2023/08/31 02:20:30;;;;;;;10.23;5.32;;;;;;;12.02;95.70;100447.91;4971418;28;20034;-73
2023/08/31 02:22:56;;;;;;;7.53;5.35;;;;;;;11.98;96.04;100453.03;4989443;28;20402;-75
2023/08/31 02:25:22;;;;;;;7.60;5.80;;;;;;;11.93;95.80;100452.31;4984337;28;20038;-73
2023/08/31 02:27:47;;;;;;;;;;;;;;;11.92;95.69;100450.69;5023468;28;20064;-73
2023/08/31 02:30:14;;;;;;;7.72;5.30;;;;;;;11.89;95.87;100453.94;4986772;28;19936;-74
2023/08/31 02:32:40;;;;;;;7.38;5.65;;;;;;;11.88;95.73;100447.00;4998367;28;20570;-74
2023/08/31 02:35:07;;;;;;;8.27;5.05;;;;;;;11.86;95.89;100452.66;4984050;28;20025;-73
2023/08/31 02:37:33;;;;;;;5.57;4.80;;;;;;;11.83;95.74;100455.09;5004297;28;20129;-74
2023/08/31 02:39:59;;;;;;;8.20;5.32;;;;;;;11.82;95.44;100461.53;4984314;28;20125;-74
2023/08/31 02:42:24;;;;;;;9.07;5.75;;;;;;;11.79;95.47;100464.78;4980256;28;20703;-75
2023/08/31 02:44:53;;;;;;;7.13;5.30;;;;;;;11.75;95.30;100459.97;4998753;28;20117;-74
2023/08/31 02:47:19;;;;;;;10.52;5.43;;;;;;;11.72;95.22;100463.22;5001858;28;20045;-73
2023/08/31 02:49:45;;;;;;;6.20;5.40;;;;;;;11.69;95.09;100457.63;4997272;28;20138;-72
2023/08/31 02:52:11;;;;;;;6.10;4.32;;;;;;;11.64;94.94;100463.03;4969273;28;20034;-73
2023/08/31 02:54:37;;;;;;;8.07;4.82;;;;;;;11.61;95.02;100469.75;4999115;28;20041;-73
2023/08/31 02:57:03;;;;;;;6.68;4.30;;;;;;;11.55;94.73;100470.88;5001535;28;20030;-73
2023/08/31 02:59:29;;;;;;;5.65;4.68;;;;;;;11.53;94.87;100467.69;5004186;28;20124;-73
2023/08/31 03:01:54;;;;;;;8.85;4.95;;;;;;;11.48;94.68;100467.72;5003833;28;20095;-73
2023/08/31 03:04:20;;;;;;;7.75;4.68;;;;;;;11.44;94.60;100470.16;5004783;28;20099;-72
2023/08/31 03:06:47;;;;;;;6.68;4.88;;;;;;;11.39;94.90;100474.78;5001075;28;20036;-72
2023/08/31 03:09:13;;;;;;;7.07;4.47;;;;;;;11.37;94.82;100467.00;5000561;28;20105;-73
2023/08/31 03:11:39;;;;;;;6.30;4.28;;;;;;;11.34;94.98;100469.47;4984794;28;20475;-73
2023/08/31 03:14:05;;;;;;;7.10;4.45;;;;;;;11.33;95.43;100467.88;4989626;28;20030;-72
2023/08/31 03:16:31;;;;;;;7.65;4.85;;;;;;;11.30;95.30;100468.41;5006533;28;20137;-72
2023/08/31 03:18:57;;;;;;;;;;;;;;;11.25;95.30;100465.81;4999044;28;20072;-73
2023/08/31 03:21:23;;;;;;;6.57;4.40;;;;;;;11.18;95.41;100460.75;4987485;28;19956;-73
2023/08/31 03:23:49;;;;;;;7.80;4.40;;;;;;;11.16;95.42;100466.38;4999275;28;20066;-72
2023/08/31 03:26:14;;;;;;;10.18;5.32;;;;;;;11.16;95.59;100468.25;4983113;28;20120;-73
2023/08/31 03:28:40;;;;;;;6.93;4.43;;;;;;;11.12;96.11;100478.75;5002284;28;20406;-73
2023/08/31 03:31:07;;;;;;;9.68;5.20;;;;;;;11.12;96.33;100468.03;4983579;28;20034;-75
2023/08/31 03:33:32;;;;;;;9.27;5.65;;;;;;;11.08;95.97;100468.88;5005574;28;20034;-73
2023/08/31 03:36:04;;;;;;;9.00;5.80;;;;;;;11.11;96.08;100479.03;4995428;28;20033;-72
2023/08/31 03:38:31;;;;;;;6.25;5.10;;;;;;;11.08;95.93;100483.06;5000805;28;20058;-72
2023/08/31 03:41:00;;;;;;;7.07;5.22;;;;;;;11.05;95.88;100478.28;4997987;28;20041;-73
2023/08/31 03:43:26;;;;;;;7.10;4.40;;;;;;;11.04;95.58;100473.16;5006167;28;20058;-75
2023/08/31 03:45:55;;;;;;;8.57;5.57;;;;;;;11.03;96.00;100477.72;4985801;28;20046;-72
2023/08/31 03:48:22;;;;;;;6.90;4.80;;;;;;;10.98;95.84;100477.00;5003390;28;20147;-74
2023/08/31 03:50:53;;;;;;;8.00;5.43;;;;;;;10.94;95.90;100474.03;5000774;28;20501;-73
2023/08/31 03:53:19;;;;;;;7.28;4.68;;;;;;;10.93;95.87;100469.78;4984772;28;20041;-73
2023/08/31 03:55:45;;;;;;;6.68;4.93;;;;;;;10.91;96.08;100471.94;4984863;28;20093;-72
2023/08/31 03:58:13;;;;;;;12.23;4.90;;;;;;;10.87;96.09;100470.88;5015972;28;20060;-72
2023/08/31 04:00:39;;;;;;;7.22;4.10;;;;;;;10.86;96.23;100471.97;4988221;28;20045;-72
2023/08/31 04:03:05;;;;;;;7.10;4.18;;;;;;;10.84;95.88;100471.44;5000601;28;20050;-73
2023/08/31 04:05:35;;;;;;;6.28;4.07;;;;;;;10.83;95.61;100472.50;4980799;28;20041;-72
2023/08/31 04:08:02;;;;;;;7.47;4.25;;;;;;;10.79;95.62;100485.66;4981915;28;20045;-72
2023/08/31 04:10:31;;;;;;;6.70;3.55;;;;;;;10.76;95.46;100483.53;5019311;28;20033;-72
2023/08/31 04:12:57;;;;;;;7.47;3.70;;;;;;;10.74;95.42;100482.22;4998343;28;20049;-73
2023/08/31 04:15:23;;;;;;;4.93;3.00;;;;;;;10.72;95.23;100479.03;4999951;28;20104;-72
2023/08/31 04:17:49;;;;;;;6.00;3.38;;;;;;;10.65;95.14;100485.47;4984794;28;20107;-73
2023/08/31 04:20:15;;;;;;;6.78;3.20;;;;;;;10.63;94.92;100484.97;5000516;28;20026;-73
2023/08/31 04:22:41;;;;;;;6.13;3.03;;;;;;;10.62;95.10;100487.88;5003230;28;20048;-73
2023/08/31 04:25:07;;;;;;;4.60;3.00;;;;;;;10.59;95.26;100491.94;4999117;28;20041;-72
2023/08/31 04:27:33;;;;;;;7.97;3.20;;;;;;;10.53;95.01;100493.03;5001224;28;20038;-74
2023/08/31 04:30:01;;;;;;;8.50;3.10;;;;;;;10.50;95.07;100493.59;4984790;28;20120;-73
2023/08/31 04:32:27;;;;;;;5.00;3.00;;;;;;;10.49;95.49;100496.53;5005587;28;20037;-72
2023/08/31 04:34:53;;;;;;;3.65;3.03;;;;;;;10.47;95.22;100507.50;4993423;28;20041;-73
2023/08/31 04:37:19;;;;;;;;;;;;;;;10.45;95.32;100509.66;4999317;28;20034;-73
2023/08/31 04:39:44;;;;;;;5.18;2.58;;;;;;;10.46;95.32;100513.16;4999033;28;19913;-75
2023/08/31 04:42:10;;;;;;;4.43;2.90;;;;;;;10.42;95.19;100517.44;4969015;28;20050;-75
2023/08/31 04:44:35;;;;;;;4.53;2.45;;;;;;;10.40;95.09;100517.72;5002959;28;20032;-73
2023/08/31 04:47:01;;;;;;;6.15;2.92;;;;;;;10.39;95.75;100524.16;5000755;28;20045;-72
2023/08/31 04:49:27;;;;;;;5.55;2.53;;;;;;;10.36;95.97;100519.31;4987880;28;20399;-74
2023/08/31 04:51:53;;;;;;;5.38;3.10;;;;;;;10.37;95.68;100537.81;4998275;28;20030;-75
2023/08/31 04:54:19;;;;;;;3.47;2.80;;;;;;;10.38;95.75;100539.41;5002872;28;20034;-73
2023/08/31 04:56:44;;;;;;;7.70;2.70;;;;;;;10.37;96.33;100547.72;4995324;28;20041;-76
2023/08/31 04:59:10;;;;;;;4.50;3.10;;;;;;;10.37;96.18;100550.41;5001330;28;20066;-75
2023/08/31 05:01:36;;;;;;;6.28;3.05;;;;;;;10.42;96.75;100539.66;4965323;28;20492;-74
2023/08/31 05:04:03;;;;;;;6.93;3.30;;;;;;;10.49;97.34;100550.06;4999010;28;20041;-74
2023/08/31 05:06:28;;;;;;;7.60;3.97;;;;;;;10.59;97.71;100556.19;4999454;28;20034;-74
2023/08/31 05:08:54;;;;;;;9.90;4.13;;;;;;;10.66;97.50;100555.91;5005064;28;20514;-74
2023/08/31 05:11:20;;;;;;;;;;;;;;;10.71;97.68;100565.81;4999600;28;20038;-75
2023/08/31 05:13:47;;;;;;;8.38;4.13;;;;;;;10.73;97.81;100560.97;4994519;28;19924;-72
2023/08/31 05:16:12;;;;;;;8.13;4.72;;;;;;;10.75;97.98;100564.16;4983521;28;20121;-73
2023/08/31 05:18:40;;;;;;;6.10;3.10;;;;;;;10.77;97.58;100567.34;4997898;28;20460;-74
2023/08/31 05:21:06;;;;;;;6.13;3.88;;;;;;;10.78;97.77;100574.34;4980538;28;20034;-73
2023/08/31 05:23:32;;;;;;;5.68;4.03;;;;;;;10.78;97.68;100564.44;5006135;28;20041;-73
2023/08/31 05:25:58;;;;;;;5.78;3.70;;;;;;;10.80;97.57;100577.53;5000379;28;20034;-73
2023/08/31 05:28:24;;;;;;;11.32;4.75;;;;;;;10.84;97.93;100570.56;4995525;28;20038;-73
2023/08/31 05:30:52;;;;;;;8.43;5.03;;;;;;;10.87;98.17;100575.38;4981628;28;20399;-74
2023/08/31 05:33:19;;;;;;;8.30;4.00;;;;;;;10.89;98.22;100575.88;4964025;28;20040;-74
2023/08/31 05:35:45;;;;;;;5.43;3.90;;;;;;;10.93;98.18;100582.31;4980924;28;20030;-74
2023/08/31 05:38:12;;;;;;;7.60;4.78;;;;;;;10.96;98.46;100581.75;4969597;28;20053;-74
2023/08/31 05:40:38;;;;;;;8.93;5.03;;;;;;;11.02;98.56;100591.34;4982282;28;20041;-75
2023/08/31 05:43:04;;;;;;;;;;;;;;;11.06;98.77;100581.69;4986088;28;20036;-75
2023/08/31 05:45:34;;;;;;;7.13;5.28;;;;;;;11.11;99.10;100584.38;5002367;28;19913;-74
2023/08/31 05:48:00;;;;;;;10.02;5.93;;;;;;;11.14;99.25;100578.44;4989352;28;20030;-73
2023/08/31 05:50:27;;;;;;;7.78;5.25;;;;;;;11.21;99.23;100581.59;4994976;28;20531;-75
2023/08/31 05:52:54;;;;;;;7.43;4.75;;;;;;;11.33;99.18;100580.47;4998273;28;20034;-74
2023/08/31 05:55:20;;;;;;;;;;;;;;;11.44;99.16;100582.00;4998718;28;20042;-72
2023/08/31 05:57:45;;;;;;;8.07;4.60;;;;;;;11.49;99.28;100585.44;5008644;28;19928;-72
2023/08/31 06:00:12;;;;;;;8.68;4.07;;;;;;;11.57;99.26;100586.72;5001556;28;20533;-74
2023/08/31 06:02:41;;;;;;;12.43;4.85;;;;;;;11.67;98.86;100583.97;4985600;28;20128;-74
2023/08/31 06:05:07;;;;;;;6.72;4.10;;;;;;;11.73;99.07;100579.38;4997038;28;20588;-73
2023/08/31 06:07:33;;;;;;;;;;;;;;;11.76;98.87;100594.91;5001358;28;20104;-73
2023/08/31 06:09:59;;;;;;;9.02;4.05;;;;;;;11.80;98.88;100590.59;5000724;28;19923;-74
2023/08/31 06:12:24;;;;;;;8.68;3.45;;;;;;;11.89;98.49;100598.84;4995096;28;20026;-72
2023/08/31 06:14:50;;;;;;;6.80;3.78;;;;;;;11.98;98.20;100591.78;5016760;28;20128;-72
2023/08/31 06:17:15;;;;;;;6.95;3.50;;;;;;;12.10;97.63;100586.84;4994957;28;20042;-72
2023/08/31 06:19:42;;;;;;;7.00;4.20;;;;;;;12.23;97.13;100598.81;4982335;28;20076;-75
2023/08/31 06:22:08;;;;;;;7.30;3.22;;;;;;;12.33;97.02;100603.25;4972310;28;20097;-74
2023/08/31 06:24:35;;;;;;;6.97;3.40;;;;;;;12.41;96.88;100602.66;5000907;28;20097;-73
2023/08/31 06:27:01;;;;;;;9.13;3.55;;;;;;;12.53;95.32;100597.66;5000776;28;20042;-72
2023/08/31 06:29:26;;;;;;;9.00;3.60;;;;;;;12.63;95.29;100602.16;4982541;28;20049;-73
2023/08/31 06:31:52;;;;;;;6.38;3.47;;;;;;;12.71;95.57;100599.63;4998947;28;20050;-73
2023/08/31 06:34:18;;;;;;;7.03;3.20;;;;;;;12.83;93.91;100597.31;4994958;28;20025;-74
2023/08/31 06:36:44;;;;;;;5.10;2.80;;;;;;;12.95;93.87;100601.50;4985100;28;20511;-74
2023/08/31 06:39:10;;;;;;;7.30;3.53;;;;;;;13.02;93.96;100593.88;5001221;28;20048;-74
2023/08/31 06:41:35;;;;;;;6.40;2.67;;;;;;;13.10;92.88;100595.91;4984749;28;20458;-74
2023/08/31 06:44:02;;;;;;;6.57;2.75;;;;;;;13.18;90.82;100595.25;4997531;28;20093;-75
2023/08/31 06:46:28;;;;;;;6.20;2.83;;;;;;;13.25;91.06;100597.63;4990864;28;20079;-74
2023/08/31 06:48:54;;;;;;;5.78;2.92;;;;;;;13.29;88.80;100604.81;4995307;28;20038;-74
2023/08/31 06:51:20;;;;;;;6.32;2.92;;;;;;;13.37;89.86;100601.47;4982103;28;20447;-74
2023/08/31 06:53:46;;;;;;;6.28;2.60;;;;;;;13.45;91.36;100601.91;4987916;28;20058;-76
2023/08/31 06:56:12;;;;;;;4.93;2.95;;;;;;;13.51;89.72;100601.53;4996232;28;20070;-76
2023/08/31 06:58:37;;;;;;;6.32;3.30;;;;;;;13.56;89.16;100595.28;4998420;28;20068;-74
2023/08/31 07:01:05;;;;;;;4.80;2.78;;;;;;;13.59;89.57;100592.78;4999790;28;20038;-73
2023/08/31 07:03:31;;;;;;;7.05;2.70;;;;;;;13.65;89.63;100601.59;4972964;28;20038;-74
2023/08/31 07:05:57;;;;;;;4.82;2.78;;;;;;;13.69;87.75;100597.25;4999407;28;20061;-75
2023/08/31 07:08:22;;;;;;;9.55;2.80;;;;;;;13.76;88.63;100603.03;5003511;28;20164;-74
2023/08/31 07:10:50;;;;;;;5.13;2.75;;;;;;;13.77;90.22;100595.75;5007308;28;20095;-73
2023/08/31 07:13:16;;;;;;;5.70;2.15;;;;;;;13.82;89.65;100607.25;4986186;28;20038;-72
2023/08/31 07:15:41;;;;;;;4.65;2.30;;;;;;;13.89;89.59;100606.88;5017595;28;20034;-73
2023/08/31 07:18:07;;;;;;;4.18;2.22;;;;;;;13.91;88.13;100602.78;5002325;28;20058;-74
2023/08/31 07:20:33;;;;;;;;;;;;;;;14.02;88.56;100607.97;5021582;28;20554;-73
2023/08/31 07:22:59;;;;;;;3.70;2.28;;;;;;;14.08;88.68;100612.19;4999986;28;19922;-75
2023/08/31 07:25:24;;;;;;;;;;;;;;;14.12;89.26;100610.50;4998412;28;20356;-73
2023/08/31 07:27:50;;;;;;;3.92;2.05;;;;;;;14.18;89.91;100606.63;4984460;28;19913;-75
2023/08/31 07:30:16;;;;;;;;;;;;;;;14.22;89.22;100604.94;4984473;28;20038;-75
2023/08/31 07:32:42;;;;;;;4.00;1.25;;;;;;;14.28;88.62;100608.34;4998079;28;19914;-73
2023/08/31 07:35:09;;;;;;;2.80;1.95;;;;;;;14.34;88.16;100601.75;5000426;28;20057;-72
2023/08/31 07:37:35;;;;;;;3.10;1.20;;;;;;;14.39;87.85;100605.16;4996733;28;20037;-73
2023/08/31 07:40:01;;;;;;;3.78;1.98;;;;;;;14.46;87.82;100602.91;5000364;28;20037;-73
2023/08/31 07:42:26;;;;;;;3.78;1.60;;;;;;;14.45;89.24;100598.59;5001110;28;20052;-73
2023/08/31 07:44:52;;;;;;;;;;;;;;;14.52;87.51;100605.50;4994111;28;20042;-73
2023/08/31 07:47:17;;;;;;;3.95;1.73;;;;;;;14.64;87.05;100606.63;4981669;28;19918;-74
2023/08/31 07:49:44;;;;;;;;;;;;;;;14.67;84.32;100610.59;5001219;28;20037;-73
2023/08/31 07:52:09;;;;;;;4.53;1.70;;;;;;;14.81;83.44;100600.59;4988192;28;20289;-74
2023/08/31 07:54:35;;;;;;;;;;;;;;;14.96;83.85;100604.88;5004051;28;20040;-75
2023/08/31 07:57:01;;;;;;;3.42;2.15;;;;;;;14.98;82.41;100606.19;5006639;28;19916;-74
2023/08/31 07:59:27;;;;;;;;;;;;;;;15.01;80.83;100612.88;4997984;28;20038;-73
2023/08/31 08:01:53;;;;;;;6.18;1.58;;;;;;;15.03;81.01;100613.34;5004422;28;20457;-74
2023/08/31 08:04:19;;;;;;;;;;;;;;;15.00;80.51;100614.75;4997708;28;20426;-74
2023/08/31 08:06:45;;;;;;;2.75;1.70;;;;;;;15.01;80.79;100619.06;5001329;28;19945;-74
2023/08/31 08:09:12;;;;;;;2.95;1.80;;;;;;;15.08;82.58;100625.94;5004580;28;20495;-73
2023/08/31 08:11:38;;;;;;;;;;;;;;;15.02;79.74;100612.56;5003219;28;20053;-72
2023/08/31 08:14:04;;;;;;;3.63;1.70;;;;;;;15.01;79.64;100619.06;4999557;28;19917;-73
2023/08/31 08:16:29;;;;;;;;;;;;;;;14.87;78.10;100615.56;5003936;28;20061;-74
2023/08/31 08:18:55;;;;;;;4.10;1.65;;;;;;;14.94;80.42;100615.16;5006456;28;19917;-73
2023/08/31 08:21:21;;;;;;;3.72;1.70;;;;;;;15.08;80.20;100625.94;4998199;28;20031;-74
2023/08/31 08:23:50;;;;;;;;;;;;;;;15.17;78.54;100618.72;5003960;28;20057;-74
2023/08/31 08:26:16;;;;;;;5.32;1.85;;;;;;;15.16;80.58;100625.22;4970160;28;20749;-73
2023/08/31 08:28:41;;;;;;;;;;;;;;;15.12;82.17;100627.75;5001213;28;20045;-74
2023/08/31 08:31:07;;;;;;;5.50;2.20;;;;;;;15.17;80.03;100629.50;4987800;28;19960;-74
2023/08/31 08:33:32;;;;;;;;;;;;;;;15.16;79.37;100625.22;4981518;28;20065;-74
2023/08/31 08:35:58;;;;;;;4.07;1.27;;;;;;;15.17;78.98;100624.94;4975705;28;20345;-74
2023/08/31 08:38:25;;;;;;;;;;;;;;;15.17;82.81;100624.94;5005452;28;20483;-73
2023/08/31 08:40:51;;;;;;;4.72;1.88;;;;;;;15.29;82.65;100621.69;5006202;28;19917;-72
2023/08/31 08:43:23;;;;;;;;;;;;;;;15.36;80.75;100622.06;5008665;28;20045;-73
2023/08/31 08:45:50;;;;;;;7.95;1.92;;;;;;;15.44;79.88;100615.94;5003996;28;20515;-74
2023/08/31 08:48:17;;;;;;;7.18;1.70;;;;;;;15.43;84.13;100625.16;5002872;28;20845;-74
2023/08/31 08:50:43;;;;;;;4.63;1.55;;;;;;;15.34;79.25;100626.97;5005004;28;20053;-73
2023/08/31 08:53:09;;;;;;;;;;;;;;;15.36;79.49;100632.06;4978659;28;20034;-74
2023/08/31 08:55:35;;;;;;;3.45;1.90;;;;;;;15.27;78.47;100634.69;4998778;28;19928;-74
2023/08/31 08:58:03;;;;;;;7.15;2.28;;;;;;;15.23;78.00;100634.50;4998963;28;20049;-74
2023/08/31 09:00:30;;;;;;;6.40;2.05;;;;;;;15.19;78.18;100632.72;5002334;28;20080;-74
2023/08/31 09:02:56;;;;;;;3.90;2.15;;;;;;;15.17;78.45;100632.19;4985750;28;20155;-74
2023/08/31 09:05:23;;;;;;;5.95;2.08;;;;;;;15.12;79.21;100632.34;4999512;28;20114;-75
2023/08/31 09:08:15;;;;;;;2.97;2.03;;;;;;;15.07;79.32;100640.53;5000137;28;20045;-74
2023/08/31 09:10:44;;;;;;;5.75;1.95;;;;;;;15.12;80.84;100637.72;4987794;28;20091;-75
2023/08/31 09:13:11;;;;;;;5.15;2.55;;;;;;;15.10;79.44;100634.50;4995690;28;20042;-74
2023/08/31 09:15:44;;;;;;;4.85;2.30;;;;;;;15.14;80.26;100636.31;4998127;28;20046;-75
2023/08/31 09:18:27;;;;;;;5.90;2.90;;;;;;;15.18;79.87;100644.63;4999984;28;20049;-74
2023/08/31 09:20:56;;;;;;;3.78;2.45;;;;;;;15.25;79.63;100645.78;4982801;28;20091;-74
2023/08/31 09:23:22;;;;;;;4.03;2.28;;;;;;;15.29;78.45;100646.78;4966525;28;20040;-74
2023/08/31 09:25:49;;;;;;;;;;;;;;;15.25;78.04;100659.28;5001039;28;20037;-74
2023/08/31 09:28:16;;;;;;;4.88;3.15;;;;;;;15.25;78.41;100661.97;4998640;28;19943;-75
2023/08/31 09:30:42;;;;;;;4.57;2.67;;;;;;;15.09;76.99;100651.81;5002464;28;20045;-73
2023/08/31 09:33:10;;;;;;;4.88;2.78;;;;;;;15.05;78.12;100656.22;4999240;28;20498;-75
2023/08/31 09:35:40;;;;;;;4.93;2.10;;;;;;;15.02;78.68;100653.00;5001895;28;20030;-74
2023/08/31 09:38:09;;;;;;;4.72;3.08;;;;;;;15.03;81.36;100657.28;4997552;28;20038;-73
2023/08/31 09:40:37;;;;;;;4.00;1.92;;;;;;;14.99;80.11;100664.41;4989246;28;20452;-74
2023/08/31 09:43:03;;;;;;;4.63;2.00;;;;;;;15.02;82.92;100655.69;5002888;28;20119;-74
2023/08/31 09:45:32;;;;;;;;;;;;;;;15.05;84.26;100667.00;4998207;28;20117;-76
2023/08/31 09:48:04;;;;;;;3.17;1.67;;;;;;;15.01;83.66;100664.91;4996891;28;19917;-74
2023/08/31 09:50:31;;;;;;;4.43;2.03;;;;;;;14.96;83.94;100661.50;5008510;28;20137;-74
2023/08/31 09:53:03;;;;;;;5.47;1.90;;;;;;;14.92;84.93;100655.91;5000562;28;20061;-74
2023/08/31 09:55:31;;;;;;;6.25;2.10;;;;;;;14.88;84.22;100660.31;4997397;28;20451;-75
2023/08/31 09:57:59;;;;;;;4.93;2.80;;;;;;;14.82;81.84;100655.31;4964434;28;20029;-76
2023/08/31 10:00:30;;;;;;;4.90;2.50;;;;;;;14.88;83.63;100665.69;5004170;28;20096;-76
2023/08/31 10:03:00;;;;;;;3.25;2.35;;;;;;;14.99;82.32;100656.31;4980184;28;20129;-75
2023/08/31 10:05:26;;;;;;;4.88;1.70;;;;;;;15.09;80.09;100659.91;4990893;28;20029;-74
2023/08/31 10:07:51;;;;;;;;;;;;;;;15.39;79.17;100653.84;5000860;28;20557;-76
2023/08/31 10:10:17;;;;;;;4.13;2.75;;;;;;;15.47;79.24;100653.13;4998157;28;20028;-74
2023/08/31 10:12:47;;;;;;;;;;;;;;;15.62;78.86;100656.63;5000677;28;20081;-74
2023/08/31 10:15:14;;;;;;;3.80;2.25;;;;;;;15.69;77.96;100651.59;5001577;28;19953;-75
2023/08/31 10:17:40;;;;;;;3.50;2.45;;;;;;;15.70;76.49;100663.97;4996789;28;20054;-74
2023/08/31 10:20:09;;;;;;;4.28;2.78;;;;;;;15.63;75.83;100658.22;4999420;28;20038;-76
2023/08/31 10:22:36;;;;;;;4.75;1.83;;;;;;;15.55;76.04;100660.50;4993448;28;20034;-74
2023/08/31 10:25:03;;;;;;;4.25;2.40;;;;;;;15.57;76.33;100668.28;4968038;28;20582;-75
2023/08/31 10:27:46;;;;;;;4.40;2.40;;;;;;;15.65;78.85;100662.22;4988685;28;20264;-75
2023/08/31 10:30:21;;;;;;;3.60;2.50;;;;;;;15.75;78.36;100666.56;4987924;28;20041;-75
2023/08/31 10:33:08;;;;;;;5.13;2.65;;;;;;;15.78;75.65;100655.97;4984161;28;20050;-74
2023/08/31 10:36:00;;;;;;;3.10;2.55;;;;;;;15.81;78.17;100659.94;5021608;28;20491;-76
2023/08/31 10:38:31;;;;;;;3.75;2.63;;;;;;;15.80;77.14;100651.06;4979719;28;20050;-74
2023/08/31 10:41:03;;;;;;;4.53;2.88;;;;;;;15.73;79.37;100658.00;4993564;28;20048;-74
2023/08/31 10:43:51;;;;;;;3.70;2.40;;;;;;;15.66;79.84;100663.00;4991769;28;20128;-74
2023/08/31 10:46:34;;;;;;;3.50;2.70;;;;;;;15.55;80.91;100659.69;5001931;28;20107;-75
2023/08/31 10:49:09;;;;;;;4.38;2.47;;;;;;;15.41;78.73;100656.25;5005496;28;20045;-76
2023/08/31 10:51:37;;;;;;;3.45;2.40;;;;;;;15.33;81.93;100648.88;5005077;28;20038;-75
2023/08/31 10:54:34;;;;;;;5.38;2.45;;;;;;;15.27;83.30;100650.88;4987039;28;20038;-74
2023/08/31 10:57:00;;;;;;;5.15;2.58;;;;;;;15.40;80.05;100650.06;4978715;28;20029;-75
2023/08/31 10:59:26;;;;;;;4.63;3.85;;;;;;;15.55;76.43;100649.72;4998752;28;20698;-76
2023/08/31 11:01:56;;;;;;;3.20;2.40;;;;;;;15.83;77.08;100660.44;4987112;28;20034;-74
2023/08/31 11:04:27;;;;;;;3.22;2.38;;;;;;;16.15;77.34;100653.19;5002532;28;20083;-75
2023/08/31 11:07:18;;;;;;;3.67;2.60;;;;;;;16.30;73.37;100644.69;4996744;28;20038;-77
2023/08/31 11:09:45;;;;;;;4.40;2.40;;;;;;;16.29;77.02;100654.69;4970360;28;20068;-75
2023/08/31 11:12:12;;;;;;;6.20;2.42;;;;;;;16.28;77.45;100658.50;4980468;28;20038;-76
2023/08/31 11:14:38;;;;;;;4.20;2.40;;;;;;;16.48;71.48;100653.69;4983951;28;20073;-75
2023/08/31 11:17:05;;;;;;;5.30;2.70;;;;;;;16.67;70.65;100642.66;4995597;28;20125;-75
2023/08/31 11:19:32;;;;;;;4.85;2.13;;;;;;;17.01;72.35;100648.19;4988350;28;20045;-75
2023/08/31 11:22:02;;;;;;;2.60;1.83;;;;;;;17.36;71.65;100645.53;5009805;28;20038;-74
2023/08/31 11:24:28;;;;;;;3.53;2.17;;;;;;;17.54;69.13;100654.44;5002469;28;20645;-75
2023/08/31 11:26:55;;;;;;;3.00;2.15;;;;;;;17.56;69.59;100641.41;4994666;28;20038;-76
2023/08/31 11:29:21;;;;;;;3.65;2.20;;;;;;;17.74;68.39;100649.22;4982897;28;20454;-74
2023/08/31 11:31:46;;;;;;;5.00;2.20;;;;;;;17.77;66.04;100652.41;5005137;28;20034;-75
2023/08/31 11:34:16;;;;;;;2.88;1.88;;;;;;;17.97;68.17;100657.97;4994013;28;20077;-75